sensor_id;sensor_type;location;lat;lon;timestamp;temperature;humidity
37050;DHT22;22958;51.232;6.826;2022-09-17T00:00:31;11.00;99.90
37050;DHT22;22958;51.232;6.826;2022-09-17T00:02:57;11.00;99.90
37050;DHT22;22958;51.232;6.826;2022-09-17T00:05:22;11.00;99.90
37050;DHT22;22958;51.232;6.826;2022-09-17T00:07:49;11.00;99.90
37050;DHT22;22958;51.232;6.826;2022-09-17T00:10:14;11.00;99.90
37050;DHT22;22958;51.232;6.826;2022-09-17T00:12:40;11.00;99.90
37050;DHT22;22958;51.232;6.826;2022-09-17T00:15:06;11.00;99.90
37050;DHT22;22958;51.232;6.826;2022-09-17T00:17:31;11.00;99.90
37050;DHT22;22958;51.232;6.826;2022-09-17T00:19:57;11.00;99.90
37050;DHT22;22958;51.232;6.826;2022-09-17T00:22:22;11.00;99.90
37050;DHT22;22958;51.232;6.826;2022-09-17T00:24:47;11.00;99.90
37050;DHT22;22958;51.232;6.826;2022-09-17T00:27:13;11.00;99.90
37050;DHT22;22958;51.232;6.826;2022-09-17T00:29:38;11.00;99.90
37050;DHT22;22958;51.232;6.826;2022-09-17T00:32:04;11.00;99.90
37050;DHT22;22958;51.232;6.826;2022-09-17T00:34:29;11.10;99.90
37050;DHT22;22958;51.232;6.826;2022-09-17T00:36:55;11.10;99.90
37050;DHT22;22958;51.232;6.826;2022-09-17T00:39:20;11.10;99.90
37050;DHT22;22958;51.232;6.826;2022-09-17T00:41:45;11.10;99.90
37050;DHT22;22958;51.232;6.826;2022-09-17T00:46:55;11.00;99.90
37050;DHT22;22958;51.232;6.826;2022-09-17T00:49:23;11.00;99.90
37050;DHT22;22958;51.232;6.826;2022-09-17T00:51:52;11.10;99.90
37050;DHT22;22958;51.232;6.826;2022-09-17T00:54:19;11.00;99.90
37050;DHT22;22958;51.232;6.826;2022-09-17T00:56:45;11.00;99.90
37050;DHT22;22958;51.232;6.826;2022-09-17T00:59:11;11.00;99.90
37050;DHT22;22958;51.232;6.826;2022-09-17T01:01:37;11.00;99.90
37050;DHT22;22958;51.232;6.826;2022-09-17T01:04:03;11.00;99.90
37050;DHT22;22958;51.232;6.826;2022-09-17T01:06:33;11.00;99.90
37050;DHT22;22958;51.232;6.826;2022-09-17T01:09:03;11.00;99.90
37050;DHT22;22958;51.232;6.826;2022-09-17T01:14:12;10.90;99.90
37050;DHT22;22958;51.232;6.826;2022-09-17T01:21:58;11.00;99.90
37050;DHT22;22958;51.232;6.826;2022-09-17T01:24:32;11.00;99.90
37050;DHT22;22958;51.232;6.826;2022-09-17T01:37:29;10.90;99.90
37050;DHT22;22958;51.232;6.826;2022-09-17T01:40:06;10.90;99.90
37050;DHT22;22958;51.232;6.826;2022-09-17T01:42:35;10.90;99.90
37050;DHT22;22958;51.232;6.826;2022-09-17T01:45:47;10.90;99.90
37050;DHT22;22958;51.232;6.826;2022-09-17T01:47:56;10.90;99.90
37050;DHT22;22958;51.232;6.826;2022-09-17T01:50:24;10.80;99.90
37050;DHT22;22958;51.232;6.826;2022-09-17T01:52:50;10.80;99.90
37050;DHT22;22958;51.232;6.826;2022-09-17T01:55:17;10.80;99.90
37050;DHT22;22958;51.232;6.826;2022-09-17T01:57:46;10.70;99.90
37050;DHT22;22958;51.232;6.826;2022-09-17T02:00:12;10.80;99.90
37050;DHT22;22958;51.232;6.826;2022-09-17T02:02:42;10.80;99.90
37050;DHT22;22958;51.232;6.826;2022-09-17T02:05:11;10.80;99.90
37050;DHT22;22958;51.232;6.826;2022-09-17T02:07:41;10.80;99.90
37050;DHT22;22958;51.232;6.826;2022-09-17T02:10:10;10.90;99.90
37050;DHT22;22958;51.232;6.826;2022-09-17T02:12:39;10.90;99.90
37050;DHT22;22958;51.232;6.826;2022-09-17T02:15:08;10.90;99.90
37050;DHT22;22958;51.232;6.826;2022-09-17T02:17:41;10.90;99.90
37050;DHT22;22958;51.232;6.826;2022-09-17T02:20:08;10.90;99.90
37050;DHT22;22958;51.232;6.826;2022-09-17T02:22:41;11.00;99.90
37050;DHT22;22958;51.232;6.826;2022-09-17T02:25:24;11.00;99.90
37050;DHT22;22958;51.232;6.826;2022-09-17T02:27:53;10.90;99.90
37050;DHT22;22958;51.232;6.826;2022-09-17T02:30:20;10.90;99.90
37050;DHT22;22958;51.232;6.826;2022-09-17T02:32:46;10.90;99.90
37050;DHT22;22958;51.232;6.826;2022-09-17T02:35:12;11.00;99.90
37050;DHT22;22958;51.232;6.826;2022-09-17T02:37:42;11.00;99.90
37050;DHT22;22958;51.232;6.826;2022-09-17T02:40:08;11.00;99.90
37050;DHT22;22958;51.232;6.826;2022-09-17T02:42:53;11.00;99.90
37050;DHT22;22958;51.232;6.826;2022-09-17T02:45:27;11.00;99.90
37050;DHT22;22958;51.232;6.826;2022-09-17T02:48:18;11.00;99.90
37050;DHT22;22958;51.232;6.826;2022-09-17T02:51:02;11.00;99.90
37050;DHT22;22958;51.232;6.826;2022-09-17T02:58:56;11.00;99.90
37050;DHT22;22958;51.232;6.826;2022-09-17T03:01:26;11.00;99.90
37050;DHT22;22958;51.232;6.826;2022-09-17T03:03:53;11.10;99.90
37050;DHT22;22958;51.232;6.826;2022-09-17T03:06:20;11.00;99.90
37050;DHT22;22958;51.232;6.826;2022-09-17T03:08:46;11.00;99.90
37050;DHT22;22958;51.232;6.826;2022-09-17T03:11:12;11.00;99.90
37050;DHT22;22958;51.232;6.826;2022-09-17T03:13:38;11.00;99.90
37050;DHT22;22958;51.232;6.826;2022-09-17T03:16:04;11.00;99.90
37050;DHT22;22958;51.232;6.826;2022-09-17T03:18:29;10.90;99.90
37050;DHT22;22958;51.232;6.826;2022-09-17T03:20:55;10.90;99.90
37050;DHT22;22958;51.232;6.826;2022-09-17T03:23:20;10.90;99.90
37050;DHT22;22958;51.232;6.826;2022-09-17T03:25:46;11.00;99.90
37050;DHT22;22958;51.232;6.826;2022-09-17T03:28:14;10.90;99.90
37050;DHT22;22958;51.232;6.826;2022-09-17T03:30:39;10.90;99.90
37050;DHT22;22958;51.232;6.826;2022-09-17T03:33:05;10.90;99.90
37050;DHT22;22958;51.232;6.826;2022-09-17T03:35:30;11.00;99.90
37050;DHT22;22958;51.232;6.826;2022-09-17T03:37:55;10.90;99.90
37050;DHT22;22958;51.232;6.826;2022-09-17T03:40:21;10.90;99.90
37050;DHT22;22958;51.232;6.826;2022-09-17T03:42:46;11.00;99.90
37050;DHT22;22958;51.232;6.826;2022-09-17T03:45:12;11.00;99.90
37050;DHT22;22958;51.232;6.826;2022-09-17T03:47:37;10.90;99.90
37050;DHT22;22958;51.232;6.826;2022-09-17T03:50:03;11.00;99.90
37050;DHT22;22958;51.232;6.826;2022-09-17T03:52:29;11.00;99.90
37050;DHT22;22958;51.232;6.826;2022-09-17T03:54:54;11.00;99.90
37050;DHT22;22958;51.232;6.826;2022-09-17T03:57:20;11.00;99.90
37050;DHT22;22958;51.232;6.826;2022-09-17T03:59:47;11.00;99.90
37050;DHT22;22958;51.232;6.826;2022-09-17T04:02:12;11.00;99.90
37050;DHT22;22958;51.232;6.826;2022-09-17T04:04:38;11.00;99.90
37050;DHT22;22958;51.232;6.826;2022-09-17T04:07:03;11.00;99.90
37050;DHT22;22958;51.232;6.826;2022-09-17T04:09:29;11.00;99.90
37050;DHT22;22958;51.232;6.826;2022-09-17T04:11:55;11.00;99.90
37050;DHT22;22958;51.232;6.826;2022-09-17T04:14:20;11.00;99.90
37050;DHT22;22958;51.232;6.826;2022-09-17T04:16:46;11.00;99.90
37050;DHT22;22958;51.232;6.826;2022-09-17T04:19:11;11.00;99.90
37050;DHT22;22958;51.232;6.826;2022-09-17T04:21:37;11.00;99.90
37050;DHT22;22958;51.232;6.826;2022-09-17T04:24:02;11.00;99.90
37050;DHT22;22958;51.232;6.826;2022-09-17T04:26:28;10.90;99.90
37050;DHT22;22958;51.232;6.826;2022-09-17T04:28:53;10.90;99.90
37050;DHT22;22958;51.232;6.826;2022-09-17T04:31:19;10.90;99.90
37050;DHT22;22958;51.232;6.826;2022-09-17T04:33:46;10.90;99.90
37050;DHT22;22958;51.232;6.826;2022-09-17T04:36:12;10.90;99.90
37050;DHT22;22958;51.232;6.826;2022-09-17T04:38:37;10.80;99.90
37050;DHT22;22958;51.232;6.826;2022-09-17T04:41:05;10.80;99.90
37050;DHT22;22958;51.232;6.826;2022-09-17T04:43:30;10.80;99.90
37050;DHT22;22958;51.232;6.826;2022-09-17T04:45:56;10.80;99.90
37050;DHT22;22958;51.232;6.826;2022-09-17T04:48:21;10.70;99.90
37050;DHT22;22958;51.232;6.826;2022-09-17T04:50:47;10.70;99.90
37050;DHT22;22958;51.232;6.826;2022-09-17T04:53:12;10.70;99.90
37050;DHT22;22958;51.232;6.826;2022-09-17T04:55:38;10.60;99.90
37050;DHT22;22958;51.232;6.826;2022-09-17T04:58:03;10.60;99.90
37050;DHT22;22958;51.232;6.826;2022-09-17T05:00:29;10.60;99.90
37050;DHT22;22958;51.232;6.826;2022-09-17T05:02:55;10.60;99.90
37050;DHT22;22958;51.232;6.826;2022-09-17T05:05:20;10.50;99.90
37050;DHT22;22958;51.232;6.826;2022-09-17T05:07:46;10.50;99.90
37050;DHT22;22958;51.232;6.826;2022-09-17T05:10:13;10.50;99.90
37050;DHT22;22958;51.232;6.826;2022-09-17T05:12:39;10.50;99.90
37050;DHT22;22958;51.232;6.826;2022-09-17T05:15:05;10.50;99.90
37050;DHT22;22958;51.232;6.826;2022-09-17T05:17:30;10.40;99.90
37050;DHT22;22958;51.232;6.826;2022-09-17T05:19:56;10.40;99.90
37050;DHT22;22958;51.232;6.826;2022-09-17T05:22:21;10.40;99.90
37050;DHT22;22958;51.232;6.826;2022-09-17T05:24:47;10.40;99.90
37050;DHT22;22958;51.232;6.826;2022-09-17T05:27:12;10.40;99.90
37050;DHT22;22958;51.232;6.826;2022-09-17T05:29:38;10.40;99.90
37050;DHT22;22958;51.232;6.826;2022-09-17T05:32:04;10.50;99.90
37050;DHT22;22958;51.232;6.826;2022-09-17T05:34:30;10.50;99.90
37050;DHT22;22958;51.232;6.826;2022-09-17T05:36:55;10.50;99.90
37050;DHT22;22958;51.232;6.826;2022-09-17T05:39:20;10.50;99.90
37050;DHT22;22958;51.232;6.826;2022-09-17T05:41:50;10.50;99.90
37050;DHT22;22958;51.232;6.826;2022-09-17T05:44:16;10.50;99.90
37050;DHT22;22958;51.232;6.826;2022-09-17T05:46:41;10.60;99.90
37050;DHT22;22958;51.232;6.826;2022-09-17T05:49:07;10.70;99.90
37050;DHT22;22958;51.232;6.826;2022-09-17T05:51:32;10.70;99.90
37050;DHT22;22958;51.232;6.826;2022-09-17T05:53:58;10.80;99.90
37050;DHT22;22958;51.232;6.826;2022-09-17T05:56:23;10.80;99.90
37050;DHT22;22958;51.232;6.826;2022-09-17T05:58:48;10.90;99.90
37050;DHT22;22958;51.232;6.826;2022-09-17T06:01:14;10.90;99.90
37050;DHT22;22958;51.232;6.826;2022-09-17T06:03:40;10.90;99.90
37050;DHT22;22958;51.232;6.826;2022-09-17T06:06:06;11.00;99.90
37050;DHT22;22958;51.232;6.826;2022-09-17T06:08:32;11.00;99.90
37050;DHT22;22958;51.232;6.826;2022-09-17T06:11:02;11.00;99.90
37050;DHT22;22958;51.232;6.826;2022-09-17T06:13:28;10.90;99.90
37050;DHT22;22958;51.232;6.826;2022-09-17T06:15:53;10.90;99.90
37050;DHT22;22958;51.232;6.826;2022-09-17T06:18:19;10.90;99.90
37050;DHT22;22958;51.232;6.826;2022-09-17T06:20:54;11.00;99.90
37050;DHT22;22958;51.232;6.826;2022-09-17T06:23:20;11.00;99.90
37050;DHT22;22958;51.232;6.826;2022-09-17T06:25:49;10.90;99.90
37050;DHT22;22958;51.232;6.826;2022-09-17T06:28:15;10.90;99.90
37050;DHT22;22958;51.232;6.826;2022-09-17T06:30:40;10.90;99.90
37050;DHT22;22958;51.232;6.826;2022-09-17T06:33:06;10.80;99.90
37050;DHT22;22958;51.232;6.826;2022-09-17T06:35:31;10.80;99.90
37050;DHT22;22958;51.232;6.826;2022-09-17T06:37:57;10.80;99.90
37050;DHT22;22958;51.232;6.826;2022-09-17T06:40:22;10.80;99.90
37050;DHT22;22958;51.232;6.826;2022-09-17T06:42:48;10.80;99.90
37050;DHT22;22958;51.232;6.826;2022-09-17T06:45:13;10.80;99.90
37050;DHT22;22958;51.232;6.826;2022-09-17T06:47:39;10.80;99.90
37050;DHT22;22958;51.232;6.826;2022-09-17T06:50:04;10.80;99.90
37050;DHT22;22958;51.232;6.826;2022-09-17T06:52:30;10.80;99.90
37050;DHT22;22958;51.232;6.826;2022-09-17T06:54:55;10.80;99.90
37050;DHT22;22958;51.232;6.826;2022-09-17T06:57:21;10.90;99.90
37050;DHT22;22958;51.232;6.826;2022-09-17T06:59:47;10.90;99.90
37050;DHT22;22958;51.232;6.826;2022-09-17T07:02:14;10.90;99.90
37050;DHT22;22958;51.232;6.826;2022-09-17T07:04:39;11.00;99.90
37050;DHT22;22958;51.232;6.826;2022-09-17T07:07:05;11.00;99.90
37050;DHT22;22958;51.232;6.826;2022-09-17T07:09:30;11.00;99.90
37050;DHT22;22958;51.232;6.826;2022-09-17T07:11:56;11.00;99.90
37050;DHT22;22958;51.232;6.826;2022-09-17T07:14:22;11.10;99.90
37050;DHT22;22958;51.232;6.826;2022-09-17T07:16:48;11.30;99.90
37050;DHT22;22958;51.232;6.826;2022-09-17T07:19:14;11.40;99.90
37050;DHT22;22958;51.232;6.826;2022-09-17T07:21:39;11.60;99.90
37050;DHT22;22958;51.232;6.826;2022-09-17T07:24:05;11.60;99.90
37050;DHT22;22958;51.232;6.826;2022-09-17T07:26:30;11.80;99.90
37050;DHT22;22958;51.232;6.826;2022-09-17T07:28:56;11.90;99.90
37050;DHT22;22958;51.232;6.826;2022-09-17T07:31:21;12.00;99.90
37050;DHT22;22958;51.232;6.826;2022-09-17T07:33:47;12.00;99.90
37050;DHT22;22958;51.232;6.826;2022-09-17T07:36:13;12.10;99.90
37050;DHT22;22958;51.232;6.826;2022-09-17T07:38:39;12.20;99.90
37050;DHT22;22958;51.232;6.826;2022-09-17T07:43:33;12.30;99.90
37050;DHT22;22958;51.232;6.826;2022-09-17T07:46:00;12.30;99.90
37050;DHT22;22958;51.232;6.826;2022-09-17T07:48:26;12.50;99.90
37050;DHT22;22958;51.232;6.826;2022-09-17T07:50:51;12.70;99.90
37050;DHT22;22958;51.232;6.826;2022-09-17T07:53:17;12.70;99.90
37050;DHT22;22958;51.232;6.826;2022-09-17T07:55:49;12.70;99.90
37050;DHT22;22958;51.232;6.826;2022-09-17T07:58:15;12.80;99.90
37050;DHT22;22958;51.232;6.826;2022-09-17T08:00:40;12.70;99.90
37050;DHT22;22958;51.232;6.826;2022-09-17T08:03:06;12.70;99.90
37050;DHT22;22958;51.232;6.826;2022-09-17T08:05:31;12.90;99.90
37050;DHT22;22958;51.232;6.826;2022-09-17T08:07:57;13.00;99.90
37050;DHT22;22958;51.232;6.826;2022-09-17T08:10:22;13.20;99.90
37050;DHT22;22958;51.232;6.826;2022-09-17T08:12:48;13.20;99.90
37050;DHT22;22958;51.232;6.826;2022-09-17T08:15:14;13.30;99.90
37050;DHT22;22958;51.232;6.826;2022-09-17T08:17:43;13.50;99.90
37050;DHT22;22958;51.232;6.826;2022-09-17T08:20:09;13.40;99.90
37050;DHT22;22958;51.232;6.826;2022-09-17T08:22:35;13.40;99.90
37050;DHT22;22958;51.232;6.826;2022-09-17T08:25:00;13.60;99.90
37050;DHT22;22958;51.232;6.826;2022-09-17T08:27:28;13.70;99.90
37050;DHT22;22958;51.232;6.826;2022-09-17T08:29:54;13.60;99.90
37050;DHT22;22958;51.232;6.826;2022-09-17T08:32:19;13.60;99.90
37050;DHT22;22958;51.232;6.826;2022-09-17T08:34:45;13.50;99.90
37050;DHT22;22958;51.232;6.826;2022-09-17T08:37:10;13.60;99.90
37050;DHT22;22958;51.232;6.826;2022-09-17T08:39:36;13.60;99.90
37050;DHT22;22958;51.232;6.826;2022-09-17T08:42:04;13.50;99.90
37050;DHT22;22958;51.232;6.826;2022-09-17T08:44:38;13.60;99.90
37050;DHT22;22958;51.232;6.826;2022-09-17T08:49:46;13.70;99.90
37050;DHT22;22958;51.232;6.826;2022-09-17T08:55:03;13.70;99.90
37050;DHT22;22958;51.232;6.826;2022-09-17T09:00:06;14.00;99.90
37050;DHT22;22958;51.232;6.826;2022-09-17T09:05:11;13.90;99.90
37050;DHT22;22958;51.232;6.826;2022-09-17T09:07:42;13.90;99.90
37050;DHT22;22958;51.232;6.826;2022-09-17T09:10:19;14.20;99.90
37050;DHT22;22958;51.232;6.826;2022-09-17T09:12:48;14.30;99.90
37050;DHT22;22958;51.232;6.826;2022-09-17T09:15:17;14.50;99.90
37050;DHT22;22958;51.232;6.826;2022-09-17T09:17:44;14.40;99.90
37050;DHT22;22958;51.232;6.826;2022-09-17T09:20:15;14.40;99.90
37050;DHT22;22958;51.232;6.826;2022-09-17T09:22:44;14.30;99.90
37050;DHT22;22958;51.232;6.826;2022-09-17T09:25:21;14.40;99.90
37050;DHT22;22958;51.232;6.826;2022-09-17T09:31:08;14.70;99.90
37050;DHT22;22958;51.232;6.826;2022-09-17T09:33:26;14.90;99.90
37050;DHT22;22958;51.232;6.826;2022-09-17T09:35:54;15.10;99.90
37050;DHT22;22958;51.232;6.826;2022-09-17T09:40:50;15.00;99.90
37050;DHT22;22958;51.232;6.826;2022-09-17T09:43:21;14.90;99.90
37050;DHT22;22958;51.232;6.826;2022-09-17T09:46:00;14.90;99.90
37050;DHT22;22958;51.232;6.826;2022-09-17T09:48:32;15.20;99.90
37050;DHT22;22958;51.232;6.826;2022-09-17T09:51:37;15.30;99.90
37050;DHT22;22958;51.232;6.826;2022-09-17T09:54:02;15.20;99.90
37050;DHT22;22958;51.232;6.826;2022-09-17T09:56:36;15.30;99.90
37050;DHT22;22958;51.232;6.826;2022-09-17T09:59:05;15.20;99.90
37050;DHT22;22958;51.232;6.826;2022-09-17T10:01:31;14.90;99.90
37050;DHT22;22958;51.232;6.826;2022-09-17T10:03:58;15.10;99.90
37050;DHT22;22958;51.232;6.826;2022-09-17T10:06:23;14.90;99.90
37050;DHT22;22958;51.232;6.826;2022-09-17T10:11:19;14.70;99.90
37050;DHT22;22958;51.232;6.826;2022-09-17T10:13:45;14.50;99.90
37050;DHT22;22958;51.232;6.826;2022-09-17T10:16:17;14.30;99.90
37050;DHT22;22958;51.232;6.826;2022-09-17T10:18:43;14.30;99.90
37050;DHT22;22958;51.232;6.826;2022-09-17T10:21:25;14.30;99.90
37050;DHT22;22958;51.232;6.826;2022-09-17T10:23:54;14.50;99.90
37050;DHT22;22958;51.232;6.826;2022-09-17T10:26:26;14.70;99.90
37050;DHT22;22958;51.232;6.826;2022-09-17T10:28:54;14.90;99.90
37050;DHT22;22958;51.232;6.826;2022-09-17T10:31:19;15.10;99.90
37050;DHT22;22958;51.232;6.826;2022-09-17T10:33:55;14.80;99.90
37050;DHT22;22958;51.232;6.826;2022-09-17T10:36:40;14.50;99.90
37050;DHT22;22958;51.232;6.826;2022-09-17T10:41:56;13.80;99.90
37050;DHT22;22958;51.232;6.826;2022-09-17T10:44:23;14.00;99.90
37050;DHT22;22958;51.232;6.826;2022-09-17T10:46:49;14.30;99.90
37050;DHT22;22958;51.232;6.826;2022-09-17T10:49:26;14.60;99.90
37050;DHT22;22958;51.232;6.826;2022-09-17T10:57:15;16.10;99.90
37050;DHT22;22958;51.232;6.826;2022-09-17T10:59:48;16.90;99.90
37050;DHT22;22958;51.232;6.826;2022-09-17T11:15:17;17.00;99.90
37050;DHT22;22958;51.232;6.826;2022-09-17T11:17:49;16.30;99.90
37050;DHT22;22958;51.232;6.826;2022-09-17T11:20:22;15.80;99.90
37050;DHT22;22958;51.232;6.826;2022-09-17T11:25:44;15.30;99.90
37050;DHT22;22958;51.232;6.826;2022-09-17T11:28:34;15.40;99.90
37050;DHT22;22958;51.232;6.826;2022-09-17T11:31:11;15.40;99.90
37050;DHT22;22958;51.232;6.826;2022-09-17T11:36:25;14.90;99.90
37050;DHT22;22958;51.232;6.826;2022-09-17T11:38:52;14.50;99.90
37050;DHT22;22958;51.232;6.826;2022-09-17T11:41:21;14.40;99.90
37050;DHT22;22958;51.232;6.826;2022-09-17T11:44:07;14.40;99.90
37050;DHT22;22958;51.232;6.826;2022-09-17T11:46:39;15.40;99.90
37050;DHT22;22958;51.232;6.826;2022-09-17T11:51:39;16.50;99.90
37050;DHT22;22958;51.232;6.826;2022-09-17T11:54:21;16.10;99.90
37050;DHT22;22958;51.232;6.826;2022-09-17T11:56:49;16.50;99.90
37050;DHT22;22958;51.232;6.826;2022-09-17T11:59:19;17.20;99.90
37050;DHT22;22958;51.232;6.826;2022-09-17T12:07:00;16.40;99.90
37050;DHT22;22958;51.232;6.826;2022-09-17T12:09:27;16.10;99.90
37050;DHT22;22958;51.232;6.826;2022-09-17T12:12:00;16.10;99.90
37050;DHT22;22958;51.232;6.826;2022-09-17T12:14:30;15.50;99.90
37050;DHT22;22958;51.232;6.826;2022-09-17T12:16:59;15.90;99.90
37050;DHT22;22958;51.232;6.826;2022-09-17T12:22:03;17.50;99.90
37050;DHT22;22958;51.232;6.826;2022-09-17T12:24:31;16.20;99.90
37050;DHT22;22958;51.232;6.826;2022-09-17T12:32:16;14.90;99.90
37050;DHT22;22958;51.232;6.826;2022-09-17T12:34:55;14.90;99.90
37050;DHT22;22958;51.232;6.826;2022-09-17T12:37:33;13.70;99.90
37050;DHT22;22958;51.232;6.826;2022-09-17T12:40:07;12.60;99.90
37050;DHT22;22958;51.232;6.826;2022-09-17T12:42:42;11.80;99.90
37050;DHT22;22958;51.232;6.826;2022-09-17T12:48:00;11.20;99.90
37050;DHT22;22958;51.232;6.826;2022-09-17T12:50:51;11.20;99.90
37050;DHT22;22958;51.232;6.826;2022-09-17T12:56:13;12.00;99.90
37050;DHT22;22958;51.232;6.826;2022-09-17T12:58:51;15.30;99.90
37050;DHT22;22958;51.232;6.826;2022-09-17T13:01:24;18.50;99.90
37050;DHT22;22958;51.232;6.826;2022-09-17T13:04:16;18.50;99.90
37050;DHT22;22958;51.232;6.826;2022-09-17T13:06:47;18.90;99.90
37050;DHT22;22958;51.232;6.826;2022-09-17T13:14:38;21.30;99.90
37050;DHT22;22958;51.232;6.826;2022-09-17T13:19:49;20.90;99.90
37050;DHT22;22958;51.232;6.826;2022-09-17T13:22:19;21.00;99.90
37050;DHT22;22958;51.232;6.826;2022-09-17T13:24:45;21.90;99.90
37050;DHT22;22958;51.232;6.826;2022-09-17T13:27:23;21.10;99.90
37050;DHT22;22958;51.232;6.826;2022-09-17T13:40:38;20.90;99.90
37050;DHT22;22958;51.232;6.826;2022-09-17T13:45:27;20.10;99.90
37050;DHT22;22958;51.232;6.826;2022-09-17T13:52:57;21.20;99.90
37050;DHT22;22958;51.232;6.826;2022-09-17T13:55:38;19.50;99.90
37050;DHT22;22958;51.232;6.826;2022-09-17T13:58:05;18.60;99.90
37050;DHT22;22958;51.232;6.826;2022-09-17T14:21:36;12.80;99.90
37050;DHT22;22958;51.232;6.826;2022-09-17T14:24:03;14.70;99.90
37050;DHT22;22958;51.232;6.826;2022-09-17T14:26:51;16.40;99.90
37050;DHT22;22958;51.232;6.826;2022-09-17T14:29:26;18.90;99.90
37050;DHT22;22958;51.232;6.826;2022-09-17T14:31:54;18.80;99.90
37050;DHT22;22958;51.232;6.826;2022-09-17T14:34:21;15.50;99.90
37050;DHT22;22958;51.232;6.826;2022-09-17T14:36:47;14.30;99.90
37050;DHT22;22958;51.232;6.826;2022-09-17T14:39:20;13.30;99.90
37050;DHT22;22958;51.232;6.826;2022-09-17T14:41:46;12.90;99.90
37050;DHT22;22958;51.232;6.826;2022-09-17T14:44:12;12.60;99.90
37050;DHT22;22958;51.232;6.826;2022-09-17T14:46:41;12.80;99.90
37050;DHT22;22958;51.232;6.826;2022-09-17T14:51:52;15.00;99.90
37050;DHT22;22958;51.232;6.826;2022-09-17T14:54:19;16.50;99.90
37050;DHT22;22958;51.232;6.826;2022-09-17T14:59:49;17.20;99.90
37050;DHT22;22958;51.232;6.826;2022-09-17T15:02:20;17.10;99.90
37050;DHT22;22958;51.232;6.826;2022-09-17T15:04:46;16.70;99.90
37050;DHT22;22958;51.232;6.826;2022-09-17T15:07:11;16.60;99.90
37050;DHT22;22958;51.232;6.826;2022-09-17T15:09:37;16.50;99.90
37050;DHT22;22958;51.232;6.826;2022-09-17T15:12:02;16.80;99.90
37050;DHT22;22958;51.232;6.826;2022-09-17T15:14:30;16.90;99.90
37050;DHT22;22958;51.232;6.826;2022-09-17T15:16:56;17.10;99.90
37050;DHT22;22958;51.232;6.826;2022-09-17T15:19:24;17.30;99.90
37050;DHT22;22958;51.232;6.826;2022-09-17T15:21:52;17.50;99.90
37050;DHT22;22958;51.232;6.826;2022-09-17T15:24:33;17.20;99.90
37050;DHT22;22958;51.232;6.826;2022-09-17T15:27:07;16.50;99.90
37050;DHT22;22958;51.232;6.826;2022-09-17T15:29:34;15.80;99.90
37050;DHT22;22958;51.232;6.826;2022-09-17T15:32:03;15.60;99.90
37050;DHT22;22958;51.232;6.826;2022-09-17T15:34:30;15.40;99.90
37050;DHT22;22958;51.232;6.826;2022-09-17T15:37:02;15.20;99.90
37050;DHT22;22958;51.232;6.826;2022-09-17T15:39:28;15.00;99.90
37050;DHT22;22958;51.232;6.826;2022-09-17T15:41:55;15.10;99.90
37050;DHT22;22958;51.232;6.826;2022-09-17T15:44:22;15.00;99.90
37050;DHT22;22958;51.232;6.826;2022-09-17T15:46:48;14.90;99.90
37050;DHT22;22958;51.232;6.826;2022-09-17T15:49:30;14.90;99.90
37050;DHT22;22958;51.232;6.826;2022-09-17T15:54:40;14.90;99.90
37050;DHT22;22958;51.232;6.826;2022-09-17T15:57:11;14.80;99.90
37050;DHT22;22958;51.232;6.826;2022-09-17T15:59:37;14.90;99.90
37050;DHT22;22958;51.232;6.826;2022-09-17T16:02:03;14.70;99.90
37050;DHT22;22958;51.232;6.826;2022-09-17T16:04:30;14.50;99.90
37050;DHT22;22958;51.232;6.826;2022-09-17T16:09:40;14.40;99.90
37050;DHT22;22958;51.232;6.826;2022-09-17T16:12:05;14.30;99.90
37050;DHT22;22958;51.232;6.826;2022-09-17T16:14:31;14.30;99.90
37050;DHT22;22958;51.232;6.826;2022-09-17T16:16:57;14.40;99.90
37050;DHT22;22958;51.232;6.826;2022-09-17T16:19:24;14.50;99.90
37050;DHT22;22958;51.232;6.826;2022-09-17T16:21:49;14.50;99.90
37050;DHT22;22958;51.232;6.826;2022-09-17T16:24:15;14.50;99.90
37050;DHT22;22958;51.232;6.826;2022-09-17T16:26:40;14.50;99.90
37050;DHT22;22958;51.232;6.826;2022-09-17T16:29:15;14.50;99.90
37050;DHT22;22958;51.232;6.826;2022-09-17T16:31:41;14.40;99.90
37050;DHT22;22958;51.232;6.826;2022-09-17T16:34:08;14.50;99.90
37050;DHT22;22958;51.232;6.826;2022-09-17T16:36:34;14.40;99.90
37050;DHT22;22958;51.232;6.826;2022-09-17T16:38:59;14.50;99.90
37050;DHT22;22958;51.232;6.826;2022-09-17T16:41:25;14.50;99.90
37050;DHT22;22958;51.232;6.826;2022-09-17T16:43:51;14.50;99.90
37050;DHT22;22958;51.232;6.826;2022-09-17T16:46:16;14.50;99.90
37050;DHT22;22958;51.232;6.826;2022-09-17T16:48:41;14.30;99.90
37050;DHT22;22958;51.232;6.826;2022-09-17T16:51:09;14.20;99.90
37050;DHT22;22958;51.232;6.826;2022-09-17T16:53:35;14.20;99.90
37050;DHT22;22958;51.232;6.826;2022-09-17T16:56:00;14.10;99.90
37050;DHT22;22958;51.232;6.826;2022-09-17T16:58:26;14.00;99.90
37050;DHT22;22958;51.232;6.826;2022-09-17T17:00:51;14.00;99.90
37050;DHT22;22958;51.232;6.826;2022-09-17T17:03:17;14.00;99.90
37050;DHT22;22958;51.232;6.826;2022-09-17T17:05:42;14.00;99.90
37050;DHT22;22958;51.232;6.826;2022-09-17T17:08:08;13.90;99.90
37050;DHT22;22958;51.232;6.826;2022-09-17T17:10:34;13.90;99.90
37050;DHT22;22958;51.232;6.826;2022-09-17T17:12:59;13.80;99.90
37050;DHT22;22958;51.232;6.826;2022-09-17T17:15:25;13.80;99.90
37050;DHT22;22958;51.232;6.826;2022-09-17T17:17:51;13.80;99.90
37050;DHT22;22958;51.232;6.826;2022-09-17T17:20:16;13.80;99.90
37050;DHT22;22958;51.232;6.826;2022-09-17T17:22:42;13.70;99.90
37050;DHT22;22958;51.232;6.826;2022-09-17T17:25:08;13.70;99.90
37050;DHT22;22958;51.232;6.826;2022-09-17T17:27:34;13.70;99.90
37050;DHT22;22958;51.232;6.826;2022-09-17T17:30:00;13.70;99.90
37050;DHT22;22958;51.232;6.826;2022-09-17T17:32:31;13.70;99.90
37050;DHT22;22958;51.232;6.826;2022-09-17T17:34:56;13.60;99.90
37050;DHT22;22958;51.232;6.826;2022-09-17T17:37:22;13.60;99.90
37050;DHT22;22958;51.232;6.826;2022-09-17T17:39:48;13.60;99.90
37050;DHT22;22958;51.232;6.826;2022-09-17T17:42:13;13.50;99.90
37050;DHT22;22958;51.232;6.826;2022-09-17T17:44:39;13.50;99.90
37050;DHT22;22958;51.232;6.826;2022-09-17T17:47:04;13.40;99.90
37050;DHT22;22958;51.232;6.826;2022-09-17T17:49:31;13.50;99.90
37050;DHT22;22958;51.232;6.826;2022-09-17T17:51:56;13.50;99.90
37050;DHT22;22958;51.232;6.826;2022-09-17T17:54:22;13.50;99.90
37050;DHT22;22958;51.232;6.826;2022-09-17T17:56:47;13.50;99.90
37050;DHT22;22958;51.232;6.826;2022-09-17T17:59:13;13.50;99.90
37050;DHT22;22958;51.232;6.826;2022-09-17T18:01:38;13.50;99.90
37050;DHT22;22958;51.232;6.826;2022-09-17T18:04:04;13.40;99.90
37050;DHT22;22958;51.232;6.826;2022-09-17T18:06:32;13.40;99.90
37050;DHT22;22958;51.232;6.826;2022-09-17T18:08:57;13.40;99.90